Carmel, Maine
Current Conditions -  °F | °C
As of 5:53 PM on Saturday 20 Dec 2014 (Local Time) from KBGR Reporting Station
Overcast Overcast  
Wind Chill: 15°   Ceiling: 1600
Heat Index: 23°   Visibility: 10mi
Dew Point: 19°   Wind: 7mph
Humidity: 85%   Direction: 340°NNW
Pressure: 30.36"   Gusts: NA
Location:  44.8°N, 69.05°W
Report Text: KBGR 202253Z 34006KT 10SM OVC016 M05/M07 A3036 RMK AO2 SLP287 T10501072
Loading
Personal Weather Stations






























Interactive Weather Map New forecast layout! Learn more

10-Day Weather Forecast

Advertisements
Track Severe Weather on mobile